createdAt,value
2022-10-11T00:01:27.136Z,100498.45
2022-10-11T00:03:31.652Z,100495.34
2022-10-11T00:05:36.054Z,100496.81
2022-10-11T00:07:40.373Z,100494.02
2022-10-11T00:09:44.695Z,100498.05
2022-10-11T00:11:49.016Z,100495.86
2022-10-11T00:13:53.373Z,100498.21
2022-10-11T00:15:57.721Z,100496.44
2022-10-11T00:18:06.362Z,100502.57
2022-10-11T00:20:10.679Z,100500.56
2022-10-11T00:22:15.026Z,100504
2022-10-11T00:24:19.366Z,100503.73
2022-10-11T00:26:23.709Z,100503.91
2022-10-11T00:28:28.227Z,100505.75
2022-10-11T00:30:32.735Z,100509.63
2022-10-11T00:32:37.075Z,100510.76
2022-10-11T00:34:41.471Z,100523.11
2022-10-11T00:36:45.860Z,100519.13
2022-10-11T00:38:50.184Z,100521.58
2022-10-11T00:40:54.559Z,100516.22
2022-10-11T00:42:58.912Z,100517.69
2022-10-11T00:45:03.244Z,100516.77
2022-10-11T00:47:07.607Z,100520.96
2022-10-11T00:49:11.960Z,100520.9
2022-10-11T00:51:16.298Z,100520.76
2022-10-11T00:53:20.634Z,100524.92
2022-10-11T00:55:24.982Z,100522.27
2022-10-11T00:57:29.315Z,100520.66
2022-10-11T00:59:33.649Z,100526.59
2022-10-11T01:01:38.193Z,100531.03
2022-10-11T01:03:42.721Z,100527.63
2022-10-11T01:05:47.122Z,100532.14
2022-10-11T01:07:51.429Z,100532.23
2022-10-11T01:09:55.784Z,100533.7
2022-10-11T01:12:00.115Z,100531.7
2022-10-11T01:14:04.445Z,100535.53
2022-10-11T01:16:09.514Z,100533.08
2022-10-11T01:18:13.820Z,100533.08
2022-10-11T01:20:18.143Z,100534.92
2022-10-11T01:22:22.443Z,100535.95
2022-10-11T01:24:26.776Z,100536.05
2022-10-11T01:26:31.212Z,100537.89
2022-10-11T01:28:35.732Z,100536.73
2022-10-11T01:30:40.239Z,100533.36
2022-10-11T01:32:44.580Z,100537.73
2022-10-11T01:34:48.929Z,100538.63
2022-10-11T01:36:53.263Z,100540.33
2022-10-11T01:38:57.607Z,100540.88
2022-10-11T01:41:01.949Z,100546.2
2022-10-11T01:43:06.298Z,100544.94
2022-10-11T01:45:10.609Z,100552.69
2022-10-11T01:47:14.965Z,100556.13
2022-10-11T01:49:19.302Z,100558.48
2022-10-11T01:51:23.607Z,100560.06
2022-10-11T01:53:27.953Z,100557.81
2022-10-11T01:55:32.316Z,100559.94
2022-10-11T01:57:36.606Z,100564.54
2022-10-11T01:59:40.935Z,100568.2
2022-10-11T02:01:45.486Z,100571.27
2022-10-11T02:03:49.909Z,100571.61
2022-10-11T02:05:54.249Z,100573.25
2022-10-11T02:07:58.593Z,100573.7
2022-10-11T02:10:02.969Z,100578.58
2022-10-11T02:12:07.319Z,100581.06
2022-10-11T02:14:11.636Z,100580.25
2022-10-11T02:16:15.959Z,100578.61
2022-10-11T02:18:20.311Z,100587.83
2022-10-11T02:20:24.616Z,100587.63
2022-10-11T02:22:28.985Z,100587.45
2022-10-11T02:24:33.300Z,100590.73
2022-10-11T02:26:37.640Z,100587.56
2022-10-11T02:28:42.132Z,100592.7
2022-10-11T02:30:46.611Z,100595.78
2022-10-11T02:32:50.969Z,100598.75
2022-10-11T02:34:55.263Z,100600.98
2022-10-11T02:36:59.604Z,100605.93
2022-10-11T02:39:03.963Z,100607.53
2022-10-11T02:41:08.259Z,100615.38
2022-10-11T02:43:12.625Z,100622.2
2022-10-11T02:45:16.931Z,100618.92
2022-10-11T02:47:21.221Z,100625.03
2022-10-11T02:49:25.569Z,100626.56
2022-10-11T02:51:29.865Z,100627.01
2022-10-11T02:53:34.212Z,100629.44
2022-10-11T02:55:38.531Z,100633.39
2022-10-11T02:57:42.936Z,100635.95
2022-10-11T02:59:47.394Z,100635.48
2022-10-11T03:01:51.929Z,100636.37
2022-10-11T03:03:56.379Z,100637.63
2022-10-11T03:06:00.850Z,100636.78
2022-10-11T03:08:05.866Z,100637.22
2022-10-11T03:10:10.203Z,100641.23
2022-10-11T03:12:14.570Z,100647.2
2022-10-11T03:14:18.876Z,100648.7
2022-10-11T03:16:23.515Z,100653.41
2022-10-11T03:18:27.864Z,100653.28
2022-10-11T03:20:32.197Z,100654.67
2022-10-11T03:22:36.562Z,100657.47
2022-10-11T03:24:40.888Z,100658.23
2022-10-11T03:26:45.212Z,100658.94
2022-10-11T03:28:49.663Z,100662.83
2022-10-11T03:30:54.176Z,100665.63
2022-10-11T03:32:58.513Z,100668.84
2022-10-11T03:35:02.876Z,100672.73
2022-10-11T03:37:07.183Z,100683.44
2022-10-11T03:39:11.521Z,100686.06
2022-10-11T03:41:15.852Z,100690.95
2022-10-11T03:43:20.326Z,100695.17
2022-10-11T03:45:24.637Z,100697.56
2022-10-11T03:47:28.963Z,100701.89
2022-10-11T03:49:33.337Z,100703.02
2022-10-11T03:51:37.660Z,100705.81
2022-10-11T03:53:41.988Z,100708.23
2022-10-11T03:55:46.411Z,100708.38
2022-10-11T03:57:50.721Z,100712.5
2022-10-11T03:59:55.111Z,100716.49
2022-10-11T04:01:59.720Z,100714.41
2022-10-11T04:04:04.332Z,100718.44
2022-10-11T04:06:09.621Z,100717.41
2022-10-11T04:08:13.951Z,100720.89
2022-10-11T04:10:18.274Z,100720.01
2022-10-11T04:12:22.633Z,100716.59
2022-10-11T04:14:26.972Z,100718.38
2022-10-11T04:16:31.303Z,100716.33
2022-10-11T04:18:35.626Z,100721.06
2022-10-11T04:20:40.047Z,100723.22
2022-10-11T04:22:44.374Z,100732.66
2022-10-11T04:24:48.742Z,100736.52
2022-10-11T04:26:53.068Z,100736.75
2022-10-11T04:28:57.667Z,100743.09
2022-10-11T04:31:02.262Z,100747.19
2022-10-11T04:33:06.587Z,100746.09
2022-10-11T04:35:10.917Z,100754.42
2022-10-11T04:37:15.252Z,100752.64
2022-10-11T04:39:19.607Z,100754.39
2022-10-11T04:41:24.003Z,100755.92
2022-10-11T04:43:28.319Z,100761.86
2022-10-11T04:45:32.607Z,100760.7
2022-10-11T04:47:37.001Z,100763.52
2022-10-11T04:49:41.321Z,100762.44
2022-10-11T04:51:45.648Z,100767.86
2022-10-11T04:53:49.964Z,100773.17
2022-10-11T04:55:54.304Z,100777.38
2022-10-11T04:57:58.649Z,100778.97
2022-10-11T05:00:03.013Z,100775.94
2022-10-11T05:02:07.541Z,100778.16
2022-10-11T05:04:12.118Z,100779.75
2022-10-11T05:06:16.450Z,100787.56
2022-10-11T05:08:20.795Z,100787.53
2022-10-11T05:10:25.131Z,100795.44
2022-10-11T05:12:29.520Z,100789.98
2022-10-11T05:14:33.843Z,100791.22
2022-10-11T05:16:38.347Z,100795.41
2022-10-11T05:18:42.684Z,100800.59
2022-10-11T05:20:47.055Z,100804.65
2022-10-11T05:22:51.441Z,100804.99
2022-10-11T05:24:55.790Z,100803.94
2022-10-11T05:27:04.335Z,100806.22
2022-10-11T05:29:08.706Z,100815.39
2022-10-11T05:31:13.025Z,100817.51
2022-10-11T05:33:17.329Z,100820.1
2022-10-11T05:35:21.665Z,100825.77
2022-10-11T05:37:26.011Z,100824.84
2022-10-11T05:39:30.567Z,100825.08
2022-10-11T05:41:34.913Z,100829.38
2022-10-11T05:43:39.259Z,100832.79
2022-10-11T05:45:43.688Z,100836.64
2022-10-11T05:47:48.045Z,100843.5
2022-10-11T05:49:52.347Z,100845.75
2022-10-11T05:51:57.006Z,100847.73
2022-10-11T05:54:01.419Z,100856.09
2022-10-11T05:56:06.630Z,100864.99
2022-10-11T05:58:11.650Z,100866.05
2022-10-11T06:00:16.051Z,100873.05
2022-10-11T06:02:20.431Z,100872.98
2022-10-11T06:04:24.752Z,100883.79
2022-10-11T06:06:29.100Z,100888.67
2022-10-11T06:08:33.403Z,100892.45
2022-10-11T06:10:37.734Z,100900.81
2022-10-11T06:12:42.115Z,100906.62
2022-10-11T06:14:46.430Z,100911.39
2022-10-11T06:16:50.781Z,100912.18
2022-10-11T06:18:55.126Z,100913.81
2022-10-11T06:20:59.466Z,100921.77
2022-10-11T06:23:03.799Z,100925.96
2022-10-11T06:25:08.143Z,100929.38
2022-10-11T06:27:12.479Z,100929.45
2022-10-11T06:29:16.843Z,100938.36
2022-10-11T06:31:21.197Z,100940.47
2022-10-11T06:33:25.507Z,100946.17
2022-10-11T06:35:29.844Z,100950.27
2022-10-11T06:37:34.161Z,100954.19
2022-10-11T06:39:38.513Z,100961.94
2022-10-11T06:41:42.865Z,100966.2
2022-10-11T06:43:47.211Z,100969.92
2022-10-11T06:45:51.535Z,100975
2022-10-11T06:47:55.893Z,100980.23
2022-10-11T06:50:00.236Z,100979.51
2022-10-11T06:52:04.591Z,100979.17
2022-10-11T06:54:08.907Z,100980.03
2022-10-11T06:56:13.206Z,100980.88
2022-10-11T06:58:17.559Z,100981.3
2022-10-11T07:00:21.924Z,100984.81
2022-10-11T07:02:26.309Z,100983.04
2022-10-11T07:04:31.296Z,100989.63
2022-10-11T07:06:35.624Z,100993.35
2022-10-11T07:08:39.990Z,100995.57
2022-10-11T07:10:44.338Z,100996.97
2022-10-11T07:12:48.644Z,101001.55
2022-10-11T07:14:52.982Z,101004.11
2022-10-11T07:16:57.316Z,101006.05
2022-10-11T07:19:02.415Z,101017.02
2022-10-11T07:21:06.792Z,101013.13
2022-10-11T07:23:11.259Z,101019.84
2022-10-11T07:25:15.596Z,101019.81
2022-10-11T07:27:19.912Z,101027.39
2022-10-11T07:29:24.281Z,101025.31
2022-10-11T07:31:28.625Z,101032.83
2022-10-11T07:33:32.973Z,101029.88
2022-10-11T07:35:37.508Z,101030.33
2022-10-11T07:37:41.860Z,101031.8
2022-10-11T07:39:46.207Z,101035.83
2022-10-11T07:41:50.545Z,101044.94
2022-10-11T07:43:54.891Z,101040.64
2022-10-11T07:45:59.363Z,101044.43
2022-10-11T07:48:03.692Z,101042.18
2022-10-11T07:50:08.006Z,101043.85
2022-10-11T07:52:12.365Z,101044.95
2022-10-11T07:54:16.737Z,101054.54
2022-10-11T07:56:21.153Z,101056.96
2022-10-11T07:58:25.478Z,101057.7
2022-10-11T08:00:29.877Z,101059.41
2022-10-11T08:02:34.397Z,101059.55
2022-10-11T08:04:38.740Z,101060.84
2022-10-11T08:06:43.076Z,101062.08
2022-10-11T08:08:47.435Z,101061.05
2022-10-11T08:10:51.785Z,101064.16
2022-10-11T08:12:58.556Z,101064.02
2022-10-11T08:15:07.974Z,101065.7
2022-10-11T08:17:12.341Z,101065.33
2022-10-11T08:19:16.743Z,101064.72
2022-10-11T08:21:21.088Z,101068.2
2022-10-11T08:23:25.679Z,101072.27
2022-10-11T08:25:30.095Z,101071.92
2022-10-11T08:27:34.922Z,101078.72
2022-10-11T08:29:39.302Z,101073.94
2022-10-11T08:31:43.692Z,101075.03
2022-10-11T08:33:48.362Z,101076.64
2022-10-11T08:35:52.747Z,101082.66
2022-10-11T08:37:57.247Z,101086.52
2022-10-11T08:40:01.580Z,101082.04
2022-10-11T08:42:05.939Z,101084.39
2022-10-11T08:44:10.275Z,101090.13
2022-10-11T08:46:14.578Z,101084.3
2022-10-11T08:48:18.953Z,101085.42
2022-10-11T08:50:23.510Z,101088.91
2022-10-11T08:52:27.835Z,101092.33
2022-10-11T08:54:32.174Z,101092.5
2022-10-11T08:56:36.497Z,101099.19
2022-10-11T08:58:40.829Z,101095.02
2022-10-11T09:00:45.194Z,101097.28
2022-10-11T09:03:09.850Z,101096.42
2022-10-11T09:05:14.354Z,101097.25
2022-10-11T09:07:18.702Z,101102.17
2022-10-11T09:09:23.031Z,101102.75
2022-10-11T09:11:27.343Z,101105.66
2022-10-11T09:13:31.683Z,101106.68
2022-10-11T09:15:36.070Z,101112.01
2022-10-11T09:17:40.395Z,101109.31
2022-10-11T09:19:44.694Z,101110.7
2022-10-11T09:21:49.079Z,101110.88
2022-10-11T09:23:53.477Z,101110.44
2022-10-11T09:25:57.836Z,101112.55
2022-10-11T09:28:04.311Z,101114.97
2022-10-11T09:30:08.696Z,101112.2
2022-10-11T09:32:13.043Z,101115.31
2022-10-11T09:34:17.382Z,101110.66
2022-10-11T09:36:21.771Z,101114.59
2022-10-11T09:38:26.179Z,101110.22
2022-10-11T09:40:30.568Z,101108.82
2022-10-11T09:42:34.928Z,101105.85
2022-10-11T09:44:39.279Z,101109.34
2022-10-11T09:46:43.606Z,101107.63
2022-10-11T09:48:48.014Z,101108.48
2022-10-11T09:50:52.362Z,101108.48
2022-10-11T09:52:56.726Z,101108.31
2022-10-11T09:55:01.088Z,101106.27
2022-10-11T09:57:05.457Z,101104.9
2022-10-11T09:59:09.838Z,101109.14
2022-10-11T10:01:14.251Z,101111.84
2022-10-11T10:03:18.653Z,101116.17
2022-10-11T10:05:23.016Z,101116.59
2022-10-11T10:07:27.333Z,101113
2022-10-11T10:09:31.658Z,101116.52
2022-10-11T10:11:36.130Z,101111.97
2022-10-11T10:13:40.467Z,101112.2
2022-10-11T10:15:44.848Z,101114.94
2022-10-11T10:17:49.176Z,101114.02
2022-10-11T10:19:53.499Z,101115.35
2022-10-11T10:21:58.020Z,101113.27
2022-10-11T10:24:02.438Z,101113.75
2022-10-11T10:26:07.769Z,101113.27
2022-10-11T10:28:12.931Z,101118.26
2022-10-11T10:30:17.568Z,101118.33
2022-10-11T10:32:21.958Z,101129.3
2022-10-11T10:34:26.337Z,101118.5
2022-10-11T10:36:30.600Z,101119.7
2022-10-11T10:38:34.945Z,101123.28
2022-10-11T10:40:39.250Z,101119.02
2022-10-11T10:42:43.600Z,101121.98
2022-10-11T10:44:47.915Z,101122.02
2022-10-11T10:46:52.253Z,101119.97
2022-10-11T10:49:52.889Z,101124.69
2022-10-11T10:51:58.764Z,101119.73
2022-10-11T10:54:03.097Z,101121.98
2022-10-11T10:56:08.572Z,101125.34
2022-10-11T10:58:18.856Z,101120.45
2022-10-11T11:00:23.487Z,101123.22
2022-10-11T11:02:41.797Z,101119.66
2022-10-11T11:04:46.495Z,101119.46
2022-10-11T11:06:51.013Z,101119.09
2022-10-11T11:08:55.357Z,101121.85
2022-10-11T11:10:59.708Z,101120.89
2022-10-11T11:13:04.050Z,101121.48
2022-10-11T11:15:08.528Z,101119.5
2022-10-11T11:17:12.860Z,101119.33
2022-10-11T11:19:17.216Z,101116.55
2022-10-11T11:21:21.611Z,101119.32
2022-10-11T11:23:26.062Z,101114.13
2022-10-11T11:25:30.458Z,101121.44
2022-10-11T11:27:34.799Z,101119.55
2022-10-11T11:29:39.106Z,101119.76
2022-10-11T11:31:43.467Z,101119.83
2022-10-11T11:33:50.003Z,101117.84
2022-10-11T11:35:54.352Z,101116.33
2022-10-11T11:38:06.443Z,101117.49
2022-10-11T11:40:11.018Z,101121.52
2022-10-11T11:42:15.343Z,101122.48
2022-10-11T11:44:26.522Z,101117.08
2022-10-11T11:46:31.648Z,101118.78
2022-10-11T11:48:35.960Z,101120.55
2022-10-11T11:50:40.282Z,101124.48
2022-10-11T11:52:44.590Z,101122.64
2022-10-11T11:54:48.945Z,101117.06
2022-10-11T11:56:53.284Z,101125.68
2022-10-11T11:58:57.627Z,101121.23
2022-10-11T12:01:02.202Z,101123.94
2022-10-11T12:03:07.395Z,101124.35
2022-10-11T12:05:11.708Z,101122.77
2022-10-11T12:07:18.081Z,101118.33
2022-10-11T12:09:22.387Z,101121.58
2022-10-11T12:11:28.568Z,101125.27
2022-10-11T12:13:38.897Z,101125.37
2022-10-11T12:15:43.243Z,101124.3
2022-10-11T12:17:47.606Z,101121.47
2022-10-11T12:19:51.943Z,101123.11
2022-10-11T12:21:56.304Z,101123.04
2022-10-11T12:24:00.640Z,101126.63
2022-10-11T12:26:04.987Z,101124.58
2022-10-11T12:28:09.405Z,101123.86
2022-10-11T12:30:13.956Z,101122.97
2022-10-11T12:32:18.326Z,101123.34
2022-10-11T12:34:22.672Z,101120.05
2022-10-11T12:36:27.123Z,101119.13
2022-10-11T12:38:31.899Z,101117.42
2022-10-11T12:40:36.264Z,101119.44
2022-10-11T12:42:40.666Z,101120.87
2022-10-11T12:44:45.001Z,101114.78
2022-10-11T12:46:49.415Z,101118.44
2022-10-11T12:48:53.742Z,101116.86
2022-10-11T12:51:03.775Z,101117.37
2022-10-11T12:53:08.076Z,101119.68
2022-10-11T12:55:12.350Z,101119.82
2022-10-11T12:57:16.626Z,101122.55
2022-10-11T12:59:20.999Z,101118.03
2022-10-11T13:01:25.549Z,101112.04
2022-10-11T13:03:33.550Z,101115.61
2022-10-11T13:05:40.879Z,101123.91
2022-10-11T13:07:48.959Z,101117.44
2022-10-11T13:09:53.326Z,101123.02
2022-10-11T13:11:57.637Z,101117.17
2022-10-11T13:14:02.237Z,101118.83
2022-10-11T13:16:07.595Z,101111.72
2022-10-11T13:18:12.470Z,101115.64
2022-10-11T13:20:16.825Z,101118.41
2022-10-11T13:22:21.217Z,101118.72
2022-10-11T13:24:25.631Z,101123.06
2022-10-11T13:26:30.016Z,101120.95
2022-10-11T13:28:37.706Z,101123.69
2022-10-11T13:30:42.443Z,101121.02
2022-10-11T13:32:46.846Z,101118.56
2022-10-11T13:34:51.228Z,101120.28
2022-10-11T13:36:55.687Z,101123.77
2022-10-11T13:39:00.029Z,101117.58
2022-10-11T13:41:04.407Z,101119.95
2022-10-11T13:43:08.744Z,101112.02
2022-10-11T13:45:13.190Z,101110.86
2022-10-11T13:47:17.413Z,101112.84
2022-10-11T13:49:21.670Z,101109.49
2022-10-11T13:51:26.005Z,101111.13
2022-10-11T13:53:30.333Z,101112.61
2022-10-11T13:55:34.729Z,101114.56
2022-10-11T13:57:39.178Z,101114.33
2022-10-11T13:59:43.490Z,101109.23
2022-10-11T14:01:48.069Z,101111.47
2022-10-11T14:03:52.542Z,101114.89
2022-10-11T14:05:56.913Z,101112.16
2022-10-11T14:08:01.241Z,101110.01
2022-10-11T14:10:05.648Z,101117.47
2022-10-11T14:12:10.041Z,101108.98
2022-10-11T14:14:14.357Z,101113.33
2022-10-11T14:16:18.675Z,101114.88
2022-10-11T14:18:23.215Z,101109.34
2022-10-11T14:20:34.023Z,101113.72
2022-10-11T14:22:38.382Z,101114.54
2022-10-11T14:24:42.896Z,101115.3
2022-10-11T14:26:47.258Z,101111.67
2022-10-11T14:28:51.786Z,101109.69
2022-10-11T14:30:56.391Z,101112.36
2022-10-11T14:33:00.716Z,101111.13
2022-10-11T14:35:05.053Z,101109.55
2022-10-11T14:37:09.374Z,101109
2022-10-11T14:39:13.659Z,101108.08
2022-10-11T14:41:18.045Z,101113.38
2022-10-11T14:43:22.373Z,101116.56
2022-10-11T14:45:26.711Z,101117.52
2022-10-11T14:47:31.014Z,101117.91
2022-10-11T14:49:35.751Z,101115.14
2022-10-11T14:51:40.402Z,101119.14
2022-10-11T14:53:44.793Z,101118.02
2022-10-11T14:55:49.159Z,101115.67
2022-10-11T14:57:53.476Z,101116.8
2022-10-11T14:59:57.837Z,101119.73
2022-10-11T15:02:02.366Z,101120.28
2022-10-11T15:04:06.748Z,101119.63
2022-10-11T15:06:11.049Z,101120.72
2022-10-11T15:08:15.536Z,101118.13
2022-10-11T15:10:19.893Z,101118.88
2022-10-11T15:12:24.219Z,101117.95
2022-10-11T15:14:28.668Z,101116.31
2022-10-11T15:16:33.065Z,101116.41
2022-10-11T15:18:37.408Z,101118.09
2022-10-11T15:20:41.753Z,101117.61
2022-10-11T15:22:46.036Z,101117.71
2022-10-11T15:24:52.851Z,101118.7
2022-10-11T15:26:57.220Z,101121.43
2022-10-11T15:29:01.568Z,101124.51
2022-10-11T15:31:05.966Z,101121.23
2022-10-11T15:33:10.377Z,101121.71
2022-10-11T15:35:14.717Z,101130.42
2022-10-11T15:37:19.073Z,101125.44
2022-10-11T15:39:23.445Z,101127.73
2022-10-11T15:41:27.763Z,101127.83
2022-10-11T15:43:32.085Z,101128.07
2022-10-11T15:45:36.399Z,101128.2
2022-10-11T15:47:40.777Z,101128.79
2022-10-11T15:49:45.349Z,101133.09
2022-10-11T15:51:49.658Z,101134.67
2022-10-11T15:53:54.038Z,101134.36
2022-10-11T15:55:58.344Z,101139.83
2022-10-11T15:58:02.705Z,101138.28
2022-10-11T16:00:07.158Z,101134.56
2022-10-11T16:02:11.624Z,101136.58
2022-10-11T16:04:16.155Z,101138.59
2022-10-11T16:06:20.467Z,101137.6
2022-10-11T16:08:24.791Z,101138.73
2022-10-11T16:10:29.208Z,101137.23
2022-10-11T16:12:33.540Z,101141.53
2022-10-11T16:14:37.846Z,101142.39
2022-10-11T16:16:42.387Z,101139.48
2022-10-11T16:18:46.687Z,101144.84
2022-10-11T16:20:51.045Z,101146.24
2022-10-11T16:22:55.437Z,101146.67
2022-10-11T16:24:59.757Z,101145.98
2022-10-11T16:27:04.132Z,101150.15
2022-10-11T16:29:08.471Z,101149.4
2022-10-11T16:31:12.886Z,101153.18
2022-10-11T16:33:17.237Z,101148.67
2022-10-11T16:35:21.605Z,101147.6
2022-10-11T16:37:25.991Z,101146.88
2022-10-11T16:39:30.333Z,101150.08
2022-10-11T16:41:34.908Z,101150.45
2022-10-11T16:43:39.274Z,101154.38
2022-10-11T16:45:43.625Z,101159.74
2022-10-11T16:47:47.956Z,101160.37
2022-10-11T16:49:52.286Z,101165.97
2022-10-11T16:51:56.623Z,101165.8
2022-10-11T16:54:01.161Z,101170.02
2022-10-11T16:56:06.285Z,101168.7
2022-10-11T16:58:11.600Z,101170.58
2022-10-11T17:00:15.946Z,101170.59
2022-10-11T17:02:20.298Z,101168.38
2022-10-11T17:04:24.627Z,101171.82
2022-10-11T17:06:29.018Z,101172.63
2022-10-11T17:08:33.351Z,101173.49
2022-10-11T17:10:37.683Z,101176.35
2022-10-11T17:12:44.430Z,101179.15
2022-10-11T17:14:53.540Z,101177.03
2022-10-11T17:16:57.880Z,101179.33
2022-10-11T17:19:02.274Z,101184.19
2022-10-11T17:21:06.622Z,101180.44
2022-10-11T17:23:11.032Z,101182.91
2022-10-11T17:25:15.419Z,101186.75
2022-10-11T17:27:19.787Z,101189.75
2022-10-11T17:29:24.163Z,101193.07
2022-10-11T17:31:28.500Z,101191.58
2022-10-11T17:33:32.839Z,101192.96
2022-10-11T17:35:37.240Z,101194.31
2022-10-11T17:37:41.638Z,101193.36
2022-10-11T17:39:46.055Z,101194.3
2022-10-11T17:41:50.442Z,101194.76
2022-10-11T17:43:54.788Z,101191.83
2022-10-11T17:45:59.229Z,101194.34
2022-10-11T17:48:03.558Z,101192.22
2022-10-11T17:50:07.910Z,101194.21
2022-10-11T17:52:12.304Z,101194.48
2022-10-11T17:54:16.664Z,101192.66
2022-10-11T17:56:28.920Z,101189.41
2022-10-11T17:58:40.782Z,101194.51
2022-10-11T18:00:45.292Z,101197.39
2022-10-11T18:02:50.490Z,101197.09
2022-10-11T18:04:54.945Z,101198.94
2022-10-11T18:06:59.266Z,101200.28
2022-10-11T18:09:03.610Z,101195.84
2022-10-11T18:11:08.700Z,101199.63
2022-10-11T18:13:16.418Z,101197.76
2022-10-11T18:15:20.744Z,101199.33
2022-10-11T18:17:25.101Z,101196.39
2022-10-11T18:19:29.435Z,101200.8
2022-10-11T18:21:35.835Z,101198.62
2022-10-11T18:23:40.161Z,101199.49
2022-10-11T18:25:44.677Z,101199.17
2022-10-11T18:27:49.043Z,101197.7
2022-10-11T18:29:53.402Z,101197.55
2022-10-11T18:31:57.753Z,101200.41
2022-10-11T18:34:02.084Z,101198.56
2022-10-11T18:36:06.447Z,101200.23
2022-10-11T18:38:10.808Z,101198.84
2022-10-11T18:40:15.177Z,101198.62
2022-10-11T18:42:19.527Z,101202.42
2022-10-11T18:44:23.881Z,101196
2022-10-11T18:46:28.253Z,101199.79
2022-10-11T18:48:32.617Z,101199.48
2022-10-11T18:50:37.047Z,101200.31
2022-10-11T18:52:45.503Z,101200.36
2022-10-11T18:54:49.865Z,101199.75
2022-10-11T18:56:54.167Z,101196.69
2022-10-11T18:58:58.497Z,101200.45
2022-10-11T19:01:02.954Z,101197.43
2022-10-11T19:03:07.535Z,101199.41
2022-10-11T19:05:11.912Z,101200.16
2022-10-11T19:07:16.268Z,101201.56
2022-10-11T19:09:20.620Z,101200.48
2022-10-11T19:11:24.976Z,101203.34
2022-10-11T19:13:29.320Z,101202.48
2022-10-11T19:15:33.633Z,101199.38
2022-10-11T19:17:37.981Z,101204.53
2022-10-11T19:19:42.327Z,101211.86
2022-10-11T19:21:46.794Z,101210.53
2022-10-11T19:23:51.195Z,101208.52
2022-10-11T19:25:55.546Z,101208.26
2022-10-11T19:27:59.904Z,101209.06
2022-10-11T19:30:04.325Z,101211.63
2022-10-11T19:32:08.679Z,101212.27
2022-10-11T19:34:13.072Z,101211.8
2022-10-11T19:36:17.499Z,101210.97
2022-10-11T19:40:30.277Z,101207.92
2022-10-11T19:42:37.559Z,101210.2
2022-10-11T19:44:42.019Z,101209.27
2022-10-11T19:46:54.351Z,101211.02
2022-10-11T19:48:58.777Z,101211.16
2022-10-11T19:51:03.170Z,101212.63
2022-10-11T19:53:07.553Z,101218.03
2022-10-11T19:55:12.031Z,101215.02
2022-10-11T19:57:16.450Z,101216.88
2022-10-11T19:59:20.777Z,101216.16
2022-10-11T20:01:25.496Z,101221.56
2022-10-11T20:03:29.945Z,101216.89
2022-10-11T20:05:34.347Z,101217.89
2022-10-11T20:07:38.839Z,101223.09
2022-10-11T20:09:43.169Z,101221.44
2022-10-11T20:11:47.504Z,101221.33
2022-10-11T20:13:51.817Z,101219.74
2022-10-11T20:15:56.158Z,101228.07
2022-10-11T20:18:00.491Z,101223.66
2022-10-11T20:20:04.834Z,101222.88
2022-10-11T20:22:09.200Z,101219.55
2022-10-11T20:24:13.550Z,101221.41
2022-10-11T20:26:17.873Z,101226.59
2022-10-11T20:28:22.317Z,101221.19
2022-10-11T20:30:26.761Z,101224.25
2022-10-11T20:32:31.124Z,101223.7
2022-10-11T20:34:35.435Z,101226.8
2022-10-11T20:36:39.839Z,101230.51
2022-10-11T20:38:45.048Z,101233.95
2022-10-11T20:40:49.495Z,101236.11
2022-10-11T20:42:53.891Z,101232.52
2022-10-11T20:44:58.224Z,101237.2
2022-10-11T20:47:05.313Z,101231.81
2022-10-11T20:49:09.621Z,101233.39
2022-10-11T20:51:13.983Z,101234.55
2022-10-11T20:53:18.307Z,101234.8
2022-10-11T20:55:22.659Z,101236.48
2022-10-11T20:57:26.985Z,101234.75
2022-10-11T20:59:31.480Z,101233.47
2022-10-11T21:01:35.980Z,101234.23
2022-10-11T21:03:40.592Z,101234.95
2022-10-11T21:05:44.964Z,101235.45
2022-10-11T21:07:49.308Z,101236.59
2022-10-11T21:09:53.634Z,101238.02
2022-10-11T21:11:57.996Z,101237.48
2022-10-11T21:14:02.333Z,101235.14
2022-10-11T21:16:06.673Z,101234.35
2022-10-11T21:18:11.133Z,101233.95
2022-10-11T21:20:18.165Z,101234.44
2022-10-11T21:22:22.547Z,101235.5
2022-10-11T21:24:26.888Z,101238.84
2022-10-11T21:26:31.246Z,101235.34
2022-10-11T21:28:35.785Z,101239.42
2022-10-11T21:30:40.213Z,101241.66
2022-10-11T21:32:44.565Z,101232.68
2022-10-11T21:34:48.908Z,101235.19
2022-10-11T21:36:53.228Z,101235.65
2022-10-11T21:38:57.514Z,101236.13
2022-10-11T21:41:01.879Z,101239.38
2022-10-11T21:43:06.208Z,101239.77
2022-10-11T21:45:10.546Z,101240.81
2022-10-11T21:47:14.910Z,101244.08
2022-10-11T21:49:19.225Z,101242.56
2022-10-11T21:51:23.588Z,101244.25
2022-10-11T21:53:27.926Z,101243.46
2022-10-11T21:55:32.242Z,101242.23
2022-10-11T21:57:36.561Z,101241.79
2022-10-11T21:59:40.874Z,101240.97
2022-10-11T22:01:45.348Z,101237.23
2022-10-11T22:03:49.916Z,101238.14
2022-10-11T22:05:54.402Z,101238
2022-10-11T22:07:58.926Z,101239.18
2022-10-11T22:10:03.562Z,101239.89
2022-10-11T22:12:11.099Z,101234.77
2022-10-11T22:14:17.705Z,101235.57
2022-10-11T22:16:22.296Z,101234.72
2022-10-11T22:18:29.852Z,101235.8
2022-10-11T22:20:37.448Z,101237.22
2022-10-11T22:22:41.942Z,101239.3
2022-10-11T22:24:46.423Z,101236.64
2022-10-11T22:26:50.965Z,101240.92
2022-10-11T22:28:55.640Z,101242.36
2022-10-11T22:31:00.285Z,101240.09
2022-10-11T22:33:04.828Z,101240.11
2022-10-11T22:35:09.365Z,101239.46
2022-10-11T22:37:13.866Z,101240.17
2022-10-11T22:39:18.563Z,101241.42
2022-10-11T22:41:23.168Z,101237.89
2022-10-11T22:43:27.665Z,101236.8
2022-10-11T22:45:32.211Z,101236.49
2022-10-11T22:47:37.484Z,101238.05
2022-10-11T22:49:42.558Z,101236.81
2022-10-11T22:51:47.065Z,101236.5
2022-10-11T22:53:51.574Z,101232.93
2022-10-11T22:55:56.188Z,101235.37
2022-10-11T22:58:00.692Z,101236.08
2022-10-11T23:00:05.186Z,101239.09
2022-10-11T23:02:09.743Z,101239.39
2022-10-11T23:04:14.238Z,101237.14
2022-10-11T23:06:18.719Z,101237.86
2022-10-11T23:08:23.214Z,101241.56
2022-10-11T23:10:27.732Z,101243.64
2022-10-11T23:12:32.259Z,101239.92
2022-10-11T23:14:36.785Z,101240.29
2022-10-11T23:16:41.270Z,101236.77
2022-10-11T23:18:45.817Z,101234.56
2022-10-11T23:20:50.305Z,101236.09
2022-10-11T23:22:54.825Z,101235.91
2022-10-11T23:24:59.309Z,101236.02
2022-10-11T23:27:03.791Z,101235.7
2022-10-11T23:29:08.291Z,101236.8
2022-10-11T23:31:12.834Z,101235.78
2022-10-11T23:33:17.337Z,101245.66
2022-10-11T23:35:22.144Z,101243.98
2022-10-11T23:37:26.686Z,101241.1
2022-10-11T23:39:31.226Z,101239.68
2022-10-11T23:41:35.732Z,101243.09
2022-10-11T23:43:40.243Z,101239.88
2022-10-11T23:45:44.767Z,101245.45
2022-10-11T23:47:49.289Z,101243.08
2022-10-11T23:49:53.804Z,101234.98